Aérodrome :
LOGIN :

S'inscrire | Disclaimer

   EN    FR    IT 

 










Légende :    VFR   VFR Marginal   IFR   IFR Intensif   IFR Très Intensif
Visi : 
Plafond : 
>= 8 km
>= 3000ft
5 à 8 km
1000 à 3000 ft
1500m à 5 km
500 à 1000 ft
800 à 1500m
200 à 500 ft
< 800m
< 200 ft
Symboles :   Orages  Brouillard  Fortes neiges  Fortes précipitations  Vent > 20 kt
SIGMETs :   Divers  Orages  Givrage  Turbulence  Onde Orograph.  Cendres Volcan.







- Altitude de l'aérodrome : 63 ft
- Code IATA : BZM


EHWO - Woensdrecht Airbase

DERNIER METAR :
  • 221025Z AUTO 22010KT 190V270 9999 SCT087 OVC094 15/10 Q1019 BLU

METARs EXPIRÉS :
  • 220955Z AUTO 22009KT 180V250 9999 SCT092 OVC098 15/10 Q1019 BLU
  • 220925Z AUTO 22008KT 180V250 9999 OVC110 14/10 Q1019 BLU 21008KT 9999 FEW035 BKN100 TEMPO 22010G20KT
  • 220855Z AUTO 22008KT 180V260 9999 OVC086 13/10 Q1019 BLU 21008KT 9999 FEW035 BKN100 TEMPO 22010G20KT
  • 220825Z AUTO 22009KT 180V250 9999 -RA FEW053 BKN059 OVC065 13/10 Q1019 RERA REDZ BLU 22008KT 9999 SCT040 BKN130 TEMPO 22010G20KT
  • 220755Z AUTO 22009KT 190V260 9999 OVC130 13/09 Q1019 BLU

TAF TAF EHWO
Valide du 22 à 09h jusqu'au 22 à 21h UTC


220833Z 2209/2221 24012G22KT SCT030 BKN120
PROB30
TEMPO 2209/2218 SCT025CB BKN030
BECMG 2215/2218 23005KT
BECMG 2218/2221 15004KT
Pas de NOTAMs connus pour ce terrain.



MET'MAP, la Météo Aéronautique d'un coup d'oeil ! - Copyright ORBIFLY Décembre 2007 - Disclaimer

ORBIFLY MET'MAP TEAM :

Programmation & Développement : Alexandra Zaïnal
Conception & Développement : Baudouin d'Aumeries
Co-Programmation & Développement : Marc-Olivier Méhu
Soutien technique & logistique : Manuel Goepfert

Contact : metmap@orbifly.com




SOURCES & CREDITS :

   NOAA